createdAt,value
2019-03-21T00:02:06.512Z,8.77
2019-03-21T00:04:34.965Z,9.83
2019-03-21T00:07:03.392Z,10.60
2019-03-21T00:09:31.812Z,10.70
2019-03-21T00:12:10.580Z,10.07
2019-03-21T00:14:47.846Z,7.23
2019-03-21T00:17:34.390Z,11.00
2019-03-21T00:20:03.841Z,9.60
2019-03-21T00:22:32.258Z,10.40
2019-03-21T00:25:00.698Z,8.00
2019-03-21T00:27:29.186Z,10.10
2019-03-21T00:29:57.628Z,7.20
2019-03-21T00:32:26.043Z,7.07
2019-03-21T00:34:54.469Z,8.97
2019-03-21T00:37:22.911Z,9.07
2019-03-21T00:39:51.340Z,7.40
2019-03-21T00:42:19.764Z,7.13
2019-03-21T00:44:48.197Z,11.63
2019-03-21T00:47:16.670Z,12.00
2019-03-21T00:49:45.335Z,9.50
2019-03-21T00:52:13.780Z,6.87
2019-03-21T00:54:42.193Z,8.57
2019-03-21T00:57:10.637Z,12.40
2019-03-21T00:59:39.045Z,10.70
2019-03-21T01:02:07.512Z,9.53
2019-03-21T01:04:35.922Z,7.33
2019-03-21T01:07:05.600Z,7.70
2019-03-21T01:09:34.406Z,7.97
2019-03-21T01:12:03.018Z,7.57
2019-03-21T01:14:31.451Z,7.47
2019-03-21T01:17:00.135Z,10.83
2019-03-21T01:19:28.877Z,10.33
2019-03-21T01:21:57.368Z,8.80
2019-03-21T01:24:25.795Z,6.73
2019-03-21T01:26:54.292Z,8.07
2019-03-21T01:29:22.711Z,6.93
2019-03-21T01:31:51.135Z,9.73
2019-03-21T01:34:19.553Z,7.30
2019-03-21T01:36:48.008Z,7.60
2019-03-21T01:39:16.796Z,10.60
2019-03-21T01:41:45.211Z,8.17
2019-03-21T01:44:13.719Z,8.53
2019-03-21T01:46:42.145Z,8.13
2019-03-21T01:49:10.577Z,7.83
2019-03-21T01:51:39.062Z,7.57
2019-03-21T01:54:07.501Z,11.27
2019-03-21T01:56:35.909Z,12.30
2019-03-21T01:59:04.492Z,9.40
2019-03-21T02:01:32.973Z,12.80
2019-03-21T02:04:01.412Z,10.37
2019-03-21T02:06:29.825Z,7.77
2019-03-21T02:08:58.252Z,10.00
2019-03-21T02:11:26.687Z,7.03
2019-03-21T02:13:55.108Z,11.13
2019-03-21T02:16:23.512Z,10.43
2019-03-21T02:18:51.955Z,7.63
2019-03-21T02:21:20.365Z,7.37
2019-03-21T02:23:48.802Z,8.30
2019-03-21T02:26:17.224Z,7.23
2019-03-21T02:28:46.170Z,9.27
2019-03-21T02:31:14.611Z,9.03
2019-03-21T02:33:44.810Z,9.47
2019-03-21T02:36:13.996Z,6.43
2019-03-21T02:38:42.490Z,7.10
2019-03-21T02:41:17.212Z,8.53
2019-03-21T02:43:45.791Z,7.13
2019-03-21T02:46:14.251Z,8.80
2019-03-21T02:48:42.778Z,8.13
2019-03-21T02:51:11.337Z,8.10
2019-03-21T02:53:39.792Z,7.73
2019-03-21T02:56:13.083Z,10.20
2019-03-21T02:58:41.506Z,8.63
2019-03-21T03:01:09.924Z,8.00
2019-03-21T03:03:38.330Z,8.23
2019-03-21T03:06:06.757Z,9.20
2019-03-21T03:08:35.168Z,6.80
2019-03-21T03:11:11.049Z,9.93
2019-03-21T03:13:40.948Z,7.50
2019-03-21T03:16:09.663Z,7.03
2019-03-21T03:18:38.209Z,7.83
2019-03-21T03:21:06.716Z,7.63
2019-03-21T03:23:35.132Z,7.90
2019-03-21T03:26:03.654Z,12.40
2019-03-21T03:28:34.651Z,8.70
2019-03-21T03:31:03.156Z,9.87
2019-03-21T03:33:31.664Z,9.00
2019-03-21T03:36:00.180Z,8.23
2019-03-21T03:38:28.585Z,8.43
2019-03-21T03:41:08.404Z,6.60
2019-03-21T03:43:36.821Z,7.83
2019-03-21T03:46:05.317Z,8.60
2019-03-21T03:48:33.791Z,8.03
2019-03-21T03:51:02.407Z,7.37
2019-03-21T03:53:30.824Z,7.70
2019-03-21T03:55:59.261Z,11.10
2019-03-21T03:58:29.714Z,10.83
2019-03-21T04:00:58.486Z,10.30
2019-03-21T04:03:27.985Z,7.50
2019-03-21T04:05:57.973Z,7.70
2019-03-21T04:08:26.459Z,10.30
2019-03-21T04:10:56.768Z,7.60
2019-03-21T04:13:25.566Z,14.77
2019-03-21T04:15:54.377Z,10.50
2019-03-21T04:18:24.510Z,8.20
2019-03-21T04:21:04.649Z,7.97
2019-03-21T04:23:33.083Z,9.20
2019-03-21T04:26:04.935Z,10.87
2019-03-21T04:28:33.387Z,11.97
2019-03-21T04:31:01.789Z,12.10
2019-03-21T04:33:30.353Z,8.40
2019-03-21T04:35:58.773Z,9.70
2019-03-21T04:38:27.234Z,12.40
2019-03-21T04:40:55.649Z,7.50
2019-03-21T04:43:24.079Z,9.80
2019-03-21T04:46:02.852Z,7.50
2019-03-21T04:48:22.648Z,10.43
2019-03-21T04:50:51.154Z,9.27
2019-03-21T04:53:19.604Z,9.70
2019-03-21T04:55:48.121Z,9.47
2019-03-21T04:58:16.585Z,8.63
2019-03-21T05:00:51.016Z,9.70
2019-03-21T05:03:25.518Z,13.13
2019-03-21T05:05:53.965Z,7.53
2019-03-21T05:08:22.516Z,10.13
2019-03-21T05:10:50.915Z,6.67
2019-03-21T05:13:19.351Z,8.00
2019-03-21T05:15:49.396Z,9.30
2019-03-21T05:18:38.887Z,8.67
2019-03-21T05:21:10.618Z,10.63
2019-03-21T05:23:39.049Z,13.83
2019-03-21T05:26:07.456Z,8.90
2019-03-21T05:28:36.459Z,10.50
2019-03-21T05:31:14.048Z,8.13
2019-03-21T05:33:44.768Z,8.73
2019-03-21T05:36:13.329Z,13.53
2019-03-21T05:38:41.803Z,9.43
2019-03-21T05:41:10.205Z,7.83
2019-03-21T05:43:50.617Z,7.37
2019-03-21T05:46:26.508Z,8.60
2019-03-21T05:48:50.013Z,10.10
2019-03-21T05:51:18.437Z,10.40
2019-03-21T05:53:46.868Z,9.13
2019-03-21T05:56:15.313Z,9.57
2019-03-21T05:58:43.728Z,11.93
2019-03-21T06:01:13.004Z,8.37
2019-03-21T06:03:46.587Z,10.83
2019-03-21T06:06:45.043Z,8.17
2019-03-21T06:09:19.607Z,7.63
2019-03-21T06:11:51.461Z,12.67
2019-03-21T06:14:19.954Z,12.33
2019-03-21T06:16:48.453Z,9.37
2019-03-21T06:19:40.963Z,8.53
2019-03-21T06:22:21.557Z,15.47
2019-03-21T06:25:08.055Z,11.30
2019-03-21T06:27:36.481Z,12.77
2019-03-21T06:30:07.284Z,7.97
2019-03-21T06:32:35.721Z,9.00
2019-03-21T06:35:04.660Z,8.47
2019-03-21T06:37:33.112Z,9.13
2019-03-21T06:40:01.588Z,7.43
2019-03-21T06:42:30.032Z,10.53
2019-03-21T06:44:58.455Z,12.50
2019-03-21T06:47:26.891Z,9.33
2019-03-21T06:49:55.311Z,9.10
2019-03-21T06:52:25.486Z,12.13
2019-03-21T06:54:53.918Z,10.17
2019-03-21T06:57:22.409Z,12.33
2019-03-21T06:59:50.843Z,10.30
2019-03-21T07:02:19.269Z,10.33
2019-03-21T07:04:47.693Z,14.53
2019-03-21T07:07:16.125Z,8.30
2019-03-21T07:09:44.625Z,10.30
2019-03-21T07:12:13.153Z,7.47
2019-03-21T07:14:41.577Z,12.90
2019-03-21T07:17:10.019Z,9.90
2019-03-21T07:19:38.475Z,9.27
2019-03-21T07:22:06.970Z,10.57
2019-03-21T07:24:35.374Z,10.17
2019-03-21T07:27:03.971Z,10.40
2019-03-21T07:29:32.398Z,10.03
2019-03-21T07:32:00.856Z,13.30
2019-03-21T07:34:29.356Z,9.10
2019-03-21T07:36:57.793Z,9.67
2019-03-21T07:39:28.616Z,10.17
2019-03-21T07:41:56.458Z,8.80
2019-03-21T07:44:24.931Z,10.33
2019-03-21T07:46:53.361Z,10.73
2019-03-21T07:49:21.785Z,7.93
2019-03-21T07:51:50.287Z,6.53
2019-03-21T07:54:18.720Z,9.50
2019-03-21T07:56:47.134Z,7.10
2019-03-21T07:59:15.584Z,9.80
2019-03-21T08:01:44.011Z,8.60
2019-03-21T08:04:12.549Z,10.07
2019-03-21T08:06:40.964Z,8.30
2019-03-21T08:09:09.441Z,7.57
2019-03-21T08:11:37.889Z,8.17
2019-03-21T08:14:06.345Z,8.70
2019-03-21T08:16:34.843Z,6.57
2019-03-21T08:19:03.264Z,9.93
2019-03-21T08:21:31.722Z,15.07
2019-03-21T08:24:00.151Z,10.20
2019-03-21T08:26:28.711Z,6.60
2019-03-21T08:28:57.252Z,11.40
2019-03-21T08:31:25.689Z,8.93
2019-03-21T08:33:54.171Z,6.80
2019-03-21T08:36:22.628Z,7.83
2019-03-21T08:38:51.105Z,7.83
2019-03-21T08:41:19.684Z,11.73
2019-03-21T08:43:48.102Z,8.90
2019-03-21T08:46:16.609Z,7.17
2019-03-21T08:48:45.049Z,14.53
2019-03-21T08:51:13.530Z,7.47
2019-03-21T08:53:41.993Z,8.37
2019-03-21T08:56:10.438Z,7.80
2019-03-21T08:58:38.852Z,7.37
2019-03-21T09:01:07.357Z,8.87
2019-03-21T09:03:35.838Z,7.63
2019-03-21T09:06:04.518Z,6.43
2019-03-21T09:08:33.013Z,9.80
2019-03-21T09:11:01.548Z,12.73
2019-03-21T09:13:29.975Z,10.43
2019-03-21T09:15:58.438Z,7.80
2019-03-21T09:18:26.865Z,12.43
2019-03-21T09:20:55.304Z,9.60
2019-03-21T09:23:23.723Z,8.83
2019-03-21T09:25:52.223Z,10.20
2019-03-21T09:28:20.699Z,19.93
2019-03-21T09:30:50.683Z,7.80
2019-03-21T09:33:19.269Z,10.47
2019-03-21T09:35:47.764Z,11.13
2019-03-21T09:38:16.191Z,10.37
2019-03-21T09:40:44.645Z,9.80
2019-03-21T09:43:13.097Z,10.67
2019-03-21T09:45:41.499Z,7.80
2019-03-21T09:48:09.953Z,8.50
2019-03-21T09:50:38.425Z,9.27
2019-03-21T09:53:06.887Z,7.30
2019-03-21T09:55:35.365Z,7.10
2019-03-21T09:58:03.924Z,12.03
2019-03-21T10:00:34.781Z,6.30
2019-03-21T10:03:03.303Z,7.80
2019-03-21T10:05:32.541Z,6.30
2019-03-21T10:08:01.355Z,9.67
2019-03-21T10:10:33.809Z,7.87
2019-03-21T10:13:02.459Z,8.37
2019-03-21T10:15:30.876Z,6.93
2019-03-21T10:17:59.322Z,6.20
2019-03-21T10:20:27.756Z,8.07
2019-03-21T10:22:56.173Z,6.57
2019-03-21T10:25:26.708Z,8.00
2019-03-21T10:27:54.758Z,6.90
2019-03-21T10:30:33.944Z,7.00
2019-03-21T10:33:02.817Z,8.67
2019-03-21T10:35:32.627Z,7.70
2019-03-21T10:38:01.400Z,7.80
2019-03-21T10:40:29.901Z,5.77
2019-03-21T10:42:58.385Z,9.47
2019-03-21T10:45:26.884Z,5.10
2019-03-21T10:47:55.293Z,7.00
2019-03-21T10:50:32.483Z,5.40
2019-03-21T10:53:00.998Z,5.40
2019-03-21T10:55:29.483Z,6.37
2019-03-21T10:57:57.899Z,5.17
2019-03-21T11:00:26.421Z,5.80
2019-03-21T11:02:54.905Z,6.00
2019-03-21T11:05:23.504Z,6.07
2019-03-21T11:07:52.146Z,4.43
2019-03-21T11:10:20.771Z,8.03
2019-03-21T11:12:49.200Z,4.60
2019-03-21T11:15:17.742Z,6.47
2019-03-21T11:17:46.183Z,6.70
2019-03-21T11:20:17.684Z,6.13
2019-03-21T11:22:46.140Z,7.13
2019-03-21T11:25:14.555Z,6.07
2019-03-21T11:27:43.046Z,4.83
2019-03-21T11:30:16.233Z,5.43
2019-03-21T11:32:44.894Z,4.43
2019-03-21T11:35:13.389Z,6.73
2019-03-21T11:37:41.889Z,5.40
2019-03-21T11:40:10.465Z,4.73
2019-03-21T11:42:38.934Z,3.80
2019-03-21T11:45:08.269Z,4.43
2019-03-21T11:47:41.774Z,4.23
2019-03-21T11:50:07.297Z,5.07
2019-03-21T11:52:35.796Z,3.97
2019-03-21T11:55:08.005Z,5.23
2019-03-21T11:57:36.452Z,6.33
2019-03-21T12:00:09.608Z,6.73
2019-03-21T12:02:38.104Z,4.00
2019-03-21T12:05:07.898Z,5.03
2019-03-21T12:07:36.406Z,4.77
2019-03-21T12:10:10.362Z,5.43
2019-03-21T12:12:38.852Z,4.07
2019-03-21T12:15:08.438Z,4.20
2019-03-21T12:17:36.881Z,4.80
2019-03-21T12:20:10.602Z,3.97
2019-03-21T12:22:39.012Z,3.90
2019-03-21T12:25:08.189Z,4.10
2019-03-21T12:27:36.632Z,4.50
2019-03-21T12:30:08.202Z,4.27
2019-03-21T12:32:36.629Z,3.73
2019-03-21T12:35:07.119Z,4.50
2019-03-21T12:37:35.522Z,6.30
2019-03-21T12:40:06.639Z,5.10
2019-03-21T12:42:35.133Z,6.87
2019-03-21T12:45:05.854Z,7.40
2019-03-21T12:47:34.332Z,4.40
2019-03-21T12:50:02.842Z,3.77
2019-03-21T12:52:40.956Z,4.70
2019-03-21T12:55:01.452Z,6.73
2019-03-21T12:57:29.857Z,5.87
2019-03-21T12:59:58.297Z,4.13
2019-03-21T13:02:32.287Z,5.87
2019-03-21T13:04:57.020Z,4.60
2019-03-21T13:07:25.499Z,4.60
2019-03-21T13:09:53.957Z,4.97
2019-03-21T13:12:22.365Z,4.90
2019-03-21T13:14:50.774Z,4.67
2019-03-21T13:17:19.225Z,6.13
2019-03-21T13:19:47.660Z,7.70
2019-03-21T13:22:16.117Z,6.67
2019-03-21T13:24:44.556Z,6.27
2019-03-21T13:27:12.983Z,7.93
2019-03-21T13:29:41.465Z,6.90
2019-03-21T13:32:09.885Z,6.23
2019-03-21T13:34:38.326Z,5.10
2019-03-21T13:37:06.750Z,4.27
2019-03-21T13:39:35.198Z,5.00
2019-03-21T13:42:03.659Z,5.30
2019-03-21T13:44:32.128Z,5.00
2019-03-21T13:47:00.610Z,6.00
2019-03-21T13:49:29.148Z,5.10
2019-03-21T13:51:57.658Z,6.43
2019-03-21T13:54:26.138Z,5.00
2019-03-21T13:56:54.572Z,7.60
2019-03-21T13:59:23.021Z,6.13
2019-03-21T14:01:51.445Z,6.30
2019-03-21T14:04:19.895Z,6.03
2019-03-21T14:06:48.329Z,8.30
2019-03-21T14:09:16.772Z,6.73
2019-03-21T14:11:45.205Z,6.03
2019-03-21T14:14:13.620Z,4.90
2019-03-21T14:16:42.057Z,4.00
2019-03-21T14:19:10.489Z,4.33
2019-03-21T14:21:38.927Z,7.30
2019-03-21T14:24:07.340Z,5.67
2019-03-21T14:26:35.757Z,5.33
2019-03-21T14:29:12.523Z,4.83
2019-03-21T14:31:34.339Z,4.00
2019-03-21T14:34:02.806Z,5.20
2019-03-21T14:36:31.220Z,4.13
2019-03-21T14:38:59.635Z,4.27
2019-03-21T14:41:28.123Z,3.40
2019-03-21T14:43:56.625Z,2.87
2019-03-21T14:46:25.103Z,3.67
2019-03-21T14:48:53.545Z,3.27
2019-03-21T14:51:22.043Z,3.73
2019-03-21T14:53:50.498Z,3.33
2019-03-21T14:56:18.974Z,5.53
2019-03-21T14:58:47.418Z,4.30
2019-03-21T15:01:15.914Z,6.40
2019-03-21T15:03:44.341Z,5.17
2019-03-21T15:06:12.778Z,4.57
2019-03-21T15:08:41.297Z,4.30
2019-03-21T15:11:17.011Z,4.63
2019-03-21T15:13:39.865Z,5.93
2019-03-21T15:16:08.302Z,8.90
2019-03-21T15:18:36.921Z,4.40
2019-03-21T15:21:05.328Z,6.23
2019-03-21T15:23:40.764Z,9.70
2019-03-21T15:26:04.036Z,4.40
2019-03-21T15:28:32.515Z,5.10
2019-03-21T15:31:01.049Z,6.03
2019-03-21T15:33:29.560Z,11.03
2019-03-21T15:35:57.962Z,4.90
2019-03-21T15:38:27.723Z,7.57
2019-03-21T15:40:56.377Z,4.43
2019-03-21T15:43:24.782Z,4.27
2019-03-21T15:45:53.239Z,4.47
2019-03-21T15:48:21.665Z,6.43
2019-03-21T15:50:50.119Z,4.30
2019-03-21T15:53:18.553Z,3.80
2019-03-21T15:55:47.881Z,5.27
2019-03-21T15:58:16.276Z,4.97
2019-03-21T16:00:46.706Z,5.87
2019-03-21T16:03:15.218Z,5.00
2019-03-21T16:05:45.180Z,4.50
2019-03-21T16:08:13.615Z,5.40
2019-03-21T16:10:42.206Z,5.03
2019-03-21T16:13:10.608Z,7.67
2019-03-21T16:15:39.122Z,5.10
2019-03-21T16:18:07.544Z,4.80
2019-03-21T16:20:35.983Z,3.80
2019-03-21T16:23:04.651Z,6.70
2019-03-21T16:25:33.092Z,4.33
2019-03-21T16:28:01.849Z,5.70
2019-03-21T16:30:30.332Z,4.77
2019-03-21T16:32:58.789Z,5.63
2019-03-21T16:35:27.311Z,5.60
2019-03-21T16:37:55.720Z,6.17
2019-03-21T16:40:24.146Z,4.60
2019-03-21T16:42:52.576Z,7.13
2019-03-21T16:45:21.478Z,4.10
2019-03-21T16:47:50.002Z,5.07
2019-03-21T16:50:18.409Z,4.30
2019-03-21T16:52:46.867Z,3.83
2019-03-21T16:55:15.424Z,5.17
2019-03-21T16:57:43.905Z,5.47
2019-03-21T17:00:20.186Z,4.83
2019-03-21T17:02:48.669Z,4.13
2019-03-21T17:05:17.158Z,4.90
2019-03-21T17:07:45.577Z,3.80
2019-03-21T17:10:15.282Z,5.87
2019-03-21T17:12:43.780Z,4.20
2019-03-21T17:15:13.245Z,4.43
2019-03-21T17:17:41.821Z,5.60
2019-03-21T17:20:14.177Z,4.90
2019-03-21T17:22:42.637Z,5.03
2019-03-21T17:25:11.641Z,2.97
2019-03-21T17:27:40.167Z,4.93
2019-03-21T17:30:17.806Z,6.00
2019-03-21T17:32:46.317Z,4.30
2019-03-21T17:35:14.814Z,4.80
2019-03-21T17:37:43.390Z,4.80
2019-03-21T17:40:15.813Z,3.83
2019-03-21T17:42:44.324Z,4.17
2019-03-21T17:45:15.653Z,4.13
2019-03-21T17:47:44.234Z,4.30
2019-03-21T17:50:14.618Z,4.50
2019-03-21T17:52:43.205Z,7.07
2019-03-21T17:55:13.470Z,5.73
2019-03-21T17:57:42.095Z,5.10
2019-03-21T18:00:20.633Z,7.77
2019-03-21T18:02:49.146Z,5.63
2019-03-21T18:05:17.641Z,6.57
2019-03-21T18:07:46.083Z,7.13
2019-03-21T18:10:30.929Z,7.33
2019-03-21T18:12:59.710Z,9.37
2019-03-21T18:15:28.477Z,5.47
2019-03-21T18:17:57.279Z,6.00
2019-03-21T18:20:25.788Z,4.57
2019-03-21T18:22:54.434Z,8.37
2019-03-21T18:25:22.929Z,5.93
2019-03-21T18:27:51.398Z,11.07
2019-03-21T18:30:19.901Z,6.70
2019-03-21T18:32:48.420Z,8.03
2019-03-21T18:35:16.952Z,6.30
2019-03-21T18:37:45.469Z,6.63
2019-03-21T18:40:14.147Z,14.73
2019-03-21T18:42:42.566Z,20.63
2019-03-21T18:45:13.562Z,21.37
2019-03-21T18:47:42.090Z,16.00
2019-03-21T18:50:12.916Z,11.37
2019-03-21T18:52:41.362Z,11.20
2019-03-21T18:55:10.088Z,9.17
2019-03-21T18:57:38.528Z,13.23
2019-03-21T19:00:12.703Z,13.30
2019-03-21T19:02:41.269Z,15.33
2019-03-21T19:05:09.840Z,19.83
2019-03-21T19:07:38.351Z,22.33
2019-03-21T19:10:09.382Z,20.07
2019-03-21T19:12:37.838Z,19.63
2019-03-21T19:15:11.070Z,19.90
2019-03-21T19:17:39.585Z,15.03
2019-03-21T19:20:10.890Z,18.87
2019-03-21T19:22:39.424Z,17.47
2019-03-21T19:25:17.735Z,16.63
2019-03-21T19:27:38.757Z,15.10
2019-03-21T19:30:20.243Z,15.83
2019-03-21T19:32:48.815Z,14.20
2019-03-21T19:35:17.381Z,15.73
2019-03-21T19:37:45.914Z,15.43
2019-03-21T19:40:19.493Z,13.37
2019-03-21T19:42:48.142Z,9.40
2019-03-21T19:45:18.697Z,9.33
2019-03-21T19:47:47.312Z,13.77
2019-03-21T19:50:17.780Z,13.33
2019-03-21T19:52:46.494Z,9.47
2019-03-21T19:55:15.592Z,11.87
2019-03-21T19:57:44.223Z,14.50
2019-03-21T20:00:23.778Z,15.60
2019-03-21T20:02:52.544Z,22.10
2019-03-21T20:05:21.011Z,14.70
2019-03-21T20:07:49.574Z,8.60
2019-03-21T20:10:19.672Z,8.67
2019-03-21T20:12:48.180Z,11.83
2019-03-21T20:15:17.972Z,15.10
2019-03-21T20:17:46.562Z,15.30
2019-03-21T20:20:17.183Z,13.07
2019-03-21T20:22:45.907Z,11.47
2019-03-21T20:25:14.759Z,13.57
2019-03-21T20:27:43.375Z,12.20
2019-03-21T20:30:22.124Z,12.53
2019-03-21T20:32:50.628Z,26.93
2019-03-21T20:35:19.182Z,49.10
2019-03-21T20:37:47.703Z,95.23
2019-03-21T20:40:17.408Z,58.73
2019-03-21T20:42:45.976Z,41.07
2019-03-21T20:45:16.086Z,26.50
2019-03-21T20:47:44.599Z,40.00
2019-03-21T20:50:13.510Z,29.30
2019-03-21T20:52:41.954Z,30.47
2019-03-21T20:55:10.659Z,28.07
2019-03-21T20:57:39.163Z,26.80
2019-03-21T21:00:10.839Z,18.30
2019-03-21T21:02:39.402Z,20.70
2019-03-21T21:05:08.303Z,14.17
2019-03-21T21:07:36.760Z,14.63
2019-03-21T21:10:07.510Z,13.80
2019-03-21T21:12:36.003Z,16.73
2019-03-21T21:15:06.345Z,17.70
2019-03-21T21:17:34.817Z,17.07
2019-03-21T21:20:05.206Z,15.60
2019-03-21T21:22:33.681Z,15.63
2019-03-21T21:25:02.262Z,13.80
2019-03-21T21:27:30.737Z,15.07
2019-03-21T21:29:59.181Z,13.03
2019-03-21T21:32:27.635Z,12.97
2019-03-21T21:34:56.123Z,10.50
2019-03-21T21:37:24.583Z,10.73
2019-03-21T21:39:53.035Z,15.00
2019-03-21T21:42:21.528Z,10.17
2019-03-21T21:44:50.050Z,13.23
2019-03-21T21:47:18.523Z,11.10
2019-03-21T21:49:47.045Z,13.63
2019-03-21T21:52:15.573Z,12.00
2019-03-21T21:54:44.167Z,18.93
2019-03-21T21:57:12.791Z,14.97
2019-03-21T21:59:41.308Z,15.23
2019-03-21T22:02:09.919Z,18.20
2019-03-21T22:04:38.454Z,18.87
2019-03-21T22:07:07.031Z,13.80
2019-03-21T22:09:35.562Z,15.87
2019-03-21T22:12:04.053Z,13.97
2019-03-21T22:14:32.515Z,15.80
2019-03-21T22:17:00.961Z,11.23
2019-03-21T22:19:29.548Z,13.57
2019-03-21T22:21:57.989Z,13.57
2019-03-21T22:24:26.472Z,11.13
2019-03-21T22:26:54.913Z,11.97
2019-03-21T22:29:23.628Z,13.47
2019-03-21T22:31:52.056Z,12.50
2019-03-21T22:34:20.537Z,12.97
2019-03-21T22:36:49.816Z,12.07
2019-03-21T22:39:18.448Z,12.10
2019-03-21T22:41:46.894Z,9.33
2019-03-21T22:44:15.334Z,10.87
2019-03-21T22:46:43.765Z,13.00
2019-03-21T22:49:12.234Z,10.00
2019-03-21T22:51:40.639Z,9.43
2019-03-21T22:54:09.387Z,12.27
2019-03-21T22:56:41.587Z,9.20
2019-03-21T22:59:08.652Z,9.73
2019-03-21T23:01:37.289Z,12.93
2019-03-21T23:04:05.848Z,13.90
2019-03-21T23:06:34.278Z,12.10
2019-03-21T23:09:02.741Z,13.00
2019-03-21T23:11:31.223Z,10.80
2019-03-21T23:13:59.710Z,11.70
2019-03-21T23:16:28.164Z,10.80
2019-03-21T23:18:56.573Z,11.37
2019-03-21T23:21:25.013Z,9.50
2019-03-21T23:23:53.433Z,10.80
2019-03-21T23:26:21.884Z,11.03
2019-03-21T23:28:50.296Z,11.03
2019-03-21T23:31:18.739Z,11.50
2019-03-21T23:33:47.157Z,11.43
2019-03-21T23:36:15.582Z,9.97
2019-03-21T23:38:44.030Z,9.50
2019-03-21T23:41:12.442Z,10.20
2019-03-21T23:43:40.858Z,12.73
2019-03-21T23:46:09.302Z,10.43
2019-03-21T23:48:37.713Z,10.07
2019-03-21T23:51:06.154Z,11.20
2019-03-21T23:53:34.570Z,9.40
2019-03-21T23:56:03.032Z,13.37
2019-03-21T23:58:31.452Z,15.03
